createdAt,value
2023-02-02T00:04:25.264Z,101876.53
2023-02-02T00:09:31.625Z,101885.91
2023-02-02T00:14:33.225Z,101881.66
2023-02-02T00:19:35.243Z,101883.00
2023-02-02T00:24:36.676Z,101876.00
2023-02-02T00:29:39.811Z,101878.44
2023-02-02T00:34:41.467Z,101877.69
2023-02-02T00:39:42.865Z,101890.25
2023-02-02T00:45:03.004Z,101878.22
2023-02-02T00:50:04.934Z,101891.88
2023-02-02T00:55:06.964Z,101894.44
2023-02-02T01:00:09.563Z,101890.91
2023-02-02T01:05:12.530Z,101883.94
2023-02-02T01:10:18.015Z,101891.69
2023-02-02T01:15:19.735Z,101901.84
2023-02-02T01:20:21.379Z,101894.13
2023-02-02T01:25:22.997Z,101893.91
2023-02-02T01:30:24.557Z,101901.59
2023-02-02T01:35:26.424Z,101899.59
2023-02-02T01:40:28.088Z,101908.78
2023-02-02T01:45:29.787Z,101910.41
2023-02-02T01:50:34.415Z,101919.63
2023-02-02T01:55:38.536Z,101905.47
2023-02-02T02:00:44.652Z,101912.03
2023-02-02T02:06:10.404Z,101916.84
2023-02-02T02:11:11.806Z,101917.50
2023-02-02T02:16:39.609Z,101916.53
2023-02-02T02:22:11.916Z,101906.28
2023-02-02T02:27:21.917Z,101898.41
2023-02-02T02:32:57.678Z,101898.34
2023-02-02T02:38:10.909Z,101898.34
2023-02-02T02:43:18.457Z,101888.00
2023-02-02T02:48:20.434Z,101885.31
2023-02-02T02:53:22.433Z,101872.44
2023-02-02T02:58:32.813Z,101863.03
2023-02-02T03:03:41.969Z,101862.09
2023-02-02T03:08:54.238Z,101855.41
2023-02-02T03:13:56.224Z,101851.97
2023-02-02T03:18:57.827Z,101853.81
2023-02-02T03:23:59.918Z,101860.97
2023-02-02T03:29:01.921Z,101869.53
2023-02-02T03:34:03.342Z,101875.06
2023-02-02T03:39:04.857Z,101881.25
2023-02-02T03:44:06.256Z,101883.81
2023-02-02T03:49:07.660Z,101876.72
2023-02-02T03:54:08.999Z,101882.16
2023-02-02T03:59:10.395Z,101877.53
2023-02-02T04:04:11.801Z,101884.28
2023-02-02T04:09:13.288Z,101873.13
2023-02-02T04:14:15.031Z,101884.16
2023-02-02T04:19:17.063Z,101870.75
2023-02-02T04:24:18.522Z,101868.41
2023-02-02T04:29:19.926Z,101877.00
2023-02-02T04:34:21.406Z,101874.56
2023-02-02T04:39:22.861Z,101871.25
2023-02-02T04:44:24.361Z,101879.91
2023-02-02T04:49:25.837Z,101888.28
2023-02-02T04:54:27.380Z,101897.09
2023-02-02T04:59:30.022Z,101897.09
2023-02-02T05:04:31.536Z,101897.69
2023-02-02T05:09:32.998Z,101911.66
2023-02-02T05:14:34.371Z,101905.50
2023-02-02T05:19:35.776Z,101916.66
2023-02-02T05:24:37.349Z,101919.22
2023-02-02T05:29:38.934Z,101907.38
2023-02-02T05:34:40.532Z,101907.97
2023-02-02T05:39:41.928Z,101906.97
2023-02-02T05:44:43.366Z,101916.31
2023-02-02T05:49:44.884Z,101912.91
2023-02-02T05:54:46.385Z,101919.06
2023-02-02T05:59:47.805Z,101914.38
2023-02-02T06:04:49.307Z,101920.84
2023-02-02T06:09:50.683Z,101916.50
2023-02-02T06:14:52.056Z,101920.56
2023-02-02T06:19:53.500Z,101936.75
2023-02-02T06:24:54.940Z,101923.19
2023-02-02T06:29:56.351Z,101928.34
2023-02-02T06:34:57.913Z,101933.25
2023-02-02T06:39:59.513Z,101948.44
2023-02-02T06:45:00.947Z,101951.19
2023-02-02T06:50:02.727Z,101956.03
2023-02-02T06:55:04.534Z,101960.84
2023-02-02T07:00:06.643Z,101969.91
2023-02-02T07:05:08.410Z,101974.19
2023-02-02T07:10:10.147Z,101976.91
2023-02-02T07:15:31.785Z,101981.06
2023-02-02T07:20:33.961Z,101973.22
2023-02-02T07:25:35.377Z,101972.41
2023-02-02T07:30:42.926Z,101975.88
2023-02-02T07:35:44.743Z,101984.56
2023-02-02T07:40:46.714Z,101988.72
2023-02-02T07:45:48.089Z,101992.28
2023-02-02T07:50:49.506Z,101997.31
2023-02-02T07:55:50.974Z,101999.00
2023-02-02T08:00:52.693Z,102006.00
2023-02-02T08:05:54.257Z,102011.44
2023-02-02T08:10:55.723Z,102020.03
2023-02-02T08:16:00.311Z,102026.13
2023-02-02T08:21:03.071Z,102021.97
2023-02-02T08:26:10.555Z,102021.97
2023-02-02T08:31:15.999Z,102029.97
2023-02-02T08:36:19.621Z,102037.13
2023-02-02T08:41:28.425Z,102041.69
2023-02-02T08:46:29.843Z,102051.41
2023-02-02T08:51:31.306Z,102073.63
2023-02-02T08:56:32.730Z,102072.91
2023-02-02T09:01:35.244Z,102070.47
2023-02-02T09:06:38.855Z,102084.63
2023-02-02T09:11:40.891Z,102081.78
2023-02-02T09:16:42.497Z,102084.53
2023-02-02T09:21:43.978Z,102088.84
2023-02-02T09:26:45.447Z,102107.97
2023-02-02T09:31:47.104Z,102111.78
2023-02-02T09:36:48.573Z,102119.09
2023-02-02T09:42:05.446Z,102140.69
2023-02-02T09:47:25.654Z,102144.16
2023-02-02T09:52:39.546Z,102142.41
2023-02-02T09:57:55.447Z,102151.22
2023-02-02T10:03:03.092Z,102150.41
2023-02-02T10:08:08.035Z,102160.72
2023-02-02T10:13:27.095Z,102169.41
2023-02-02T10:18:56.072Z,102174.63
2023-02-02T10:24:00.702Z,102171.16
2023-02-02T10:29:23.580Z,102190.06
2023-02-02T10:34:53.719Z,102196.75
2023-02-02T10:40:17.277Z,102189.25
2023-02-02T10:45:19.663Z,102193.81
2023-02-02T10:50:23.229Z,102193.88
2023-02-02T10:55:43.429Z,102195.59
2023-02-02T11:00:53.456Z,102203.25
2023-02-02T11:06:15.510Z,102210.00
2023-02-02T11:11:22.080Z,102208.78
2023-02-02T11:16:38.887Z,102204.47
2023-02-02T11:21:47.655Z,102201.81
2023-02-02T11:26:56.945Z,102193.16
2023-02-02T11:32:17.547Z,102188.06
2023-02-02T11:37:22.385Z,102186.50
2023-02-02T11:42:25.400Z,102182.19
2023-02-02T11:47:30.403Z,102185.06
2023-02-02T11:52:33.141Z,102186.91
2023-02-02T11:57:34.821Z,102191.31
2023-02-02T12:02:36.526Z,102201.09
2023-02-02T12:07:38.321Z,102181.25
2023-02-02T12:12:49.427Z,102190.03
2023-02-02T12:17:58.531Z,102186.69
2023-02-02T12:23:24.071Z,102192.72
2023-02-02T12:28:44.490Z,102190.81
2023-02-02T12:33:52.791Z,102192.44
2023-02-02T12:39:08.637Z,102183.75
2023-02-02T12:44:26.212Z,102184.41
2023-02-02T12:50:05.442Z,102187.72
2023-02-02T12:55:37.478Z,102186.69
2023-02-02T13:00:55.792Z,102180.34
2023-02-02T13:06:26.361Z,102180.03
2023-02-02T13:11:41.386Z,102190.97
2023-02-02T13:16:56.476Z,102194.47
2023-02-02T13:22:00.910Z,102183.03
2023-02-02T13:27:06.359Z,102188.69
2023-02-02T13:32:19.645Z,102191.00
2023-02-02T13:37:45.302Z,102187.31
2023-02-02T13:42:54.463Z,102189.00
2023-02-02T13:48:08.442Z,102190.78
2023-02-02T13:53:28.915Z,102184.75
2023-02-02T13:58:39.601Z,102181.22
2023-02-02T14:03:44.232Z,102191.50
2023-02-02T14:09:01.775Z,102188.06
2023-02-02T14:14:28.339Z,102192.31
2023-02-02T14:19:35.658Z,102191.59
2023-02-02T14:24:38.164Z,102192.47
2023-02-02T14:29:46.978Z,102186.53
2023-02-02T14:34:50.443Z,102188.38
2023-02-02T14:40:07.215Z,102192.56
2023-02-02T14:45:11.674Z,102189.88
2023-02-02T14:50:20.729Z,102195.91
2023-02-02T14:55:22.805Z,102194.31
2023-02-02T15:00:29.260Z,102200.34
2023-02-02T15:05:38.781Z,102198.59
2023-02-02T15:10:53.701Z,102215.78
2023-02-02T15:16:09.696Z,102201.16
2023-02-02T15:21:16.990Z,102198.59
2023-02-02T15:26:24.861Z,102188.19
2023-02-02T15:31:46.703Z,102205.31
2023-02-02T15:36:51.693Z,102195.03
2023-02-02T15:42:17.023Z,102188.94
2023-02-02T15:47:28.660Z,102187.31
2023-02-02T15:52:35.392Z,102186.44
2023-02-02T15:57:37.170Z,102191.69
2023-02-02T16:02:45.681Z,102195.03
2023-02-02T16:07:59.687Z,102197.53
2023-02-02T16:13:06.239Z,102200.09
2023-02-02T16:18:15.647Z,102201.00
2023-02-02T16:23:24.576Z,102212.09
2023-02-02T16:28:26.816Z,102212.09
2023-02-02T16:33:35.802Z,102223.31
2023-02-02T16:38:40.377Z,102229.28
2023-02-02T16:43:43.063Z,102225.91
2023-02-02T16:48:55.637Z,102231.03
2023-02-02T16:54:00.965Z,102223.31
2023-02-02T16:59:25.917Z,102243.00
2023-02-02T17:04:31.096Z,102245.69
2023-02-02T17:09:37.912Z,102256.75
2023-02-02T17:14:59.306Z,102247.28
2023-02-02T17:20:00.732Z,102254.28
2023-02-02T17:25:02.832Z,102257.50
2023-02-02T17:30:05.190Z,102256.53
2023-02-02T17:35:22.708Z,102254.91
2023-02-02T17:40:24.666Z,102259.19
2023-02-02T17:45:34.107Z,102264.31
2023-02-02T17:50:37.360Z,102257.41
2023-02-02T17:55:42.657Z,102258.28
2023-02-02T18:00:55.016Z,102251.47
2023-02-02T18:05:57.723Z,102250.59
2023-02-02T18:10:59.919Z,102257.56
2023-02-02T18:16:01.421Z,102246.41
2023-02-02T18:21:07.394Z,102247.28
2023-02-02T18:26:23.219Z,102248.16
2023-02-02T18:31:24.750Z,102230.41
2023-02-02T18:36:26.268Z,102234.59
2023-02-02T18:41:27.833Z,102237.16
2023-02-02T18:46:33.895Z,102245.75
2023-02-02T18:51:35.635Z,102241.56
2023-02-02T18:56:37.115Z,102241.31
2023-02-02T19:01:38.773Z,102246.66
2023-02-02T19:07:04.169Z,102244.00
2023-02-02T19:12:13.077Z,102240.44
2023-02-02T19:17:14.501Z,102235.16
2023-02-02T19:22:21.711Z,102232.47
2023-02-02T19:27:26.361Z,102242.88
2023-02-02T19:32:32.415Z,102241.00
2023-02-02T19:37:39.154Z,102234.16
2023-02-02T19:42:45.197Z,102223.56
2023-02-02T19:47:46.627Z,102228.56
2023-02-02T19:52:49.797Z,102234.41
2023-02-02T19:58:14.873Z,102241.56
2023-02-02T20:03:18.482Z,102245.25
2023-02-02T20:08:38.887Z,102256.59
2023-02-02T20:13:48.568Z,102252.16
2023-02-02T20:18:55.785Z,102261.75
2023-02-02T20:23:57.475Z,102264.97
2023-02-02T20:29:01.262Z,102265.69
2023-02-02T20:34:17.828Z,102268.41
2023-02-02T20:39:28.358Z,102282.41
2023-02-02T20:44:32.545Z,102280.09
2023-02-02T20:49:36.790Z,102281.13
2023-02-02T20:54:42.017Z,102281.91
2023-02-02T20:59:44.909Z,102282.00
2023-02-02T21:04:47.669Z,102287.13
2023-02-02T21:09:51.090Z,102287.56
2023-02-02T21:14:54.171Z,102298.75
2023-02-02T21:19:57.908Z,102295.03
2023-02-02T21:24:59.430Z,102286.69
2023-02-02T21:30:00.937Z,102303.16
2023-02-02T21:35:03.180Z,102301.44
2023-02-02T21:40:15.234Z,102290.69
2023-02-02T21:45:22.896Z,102290.59
2023-02-02T21:50:37.636Z,102296.47
2023-02-02T21:55:40.753Z,102286.38
2023-02-02T22:00:42.278Z,102283.94
2023-02-02T22:05:43.955Z,102300.13
2023-02-02T22:10:45.645Z,102288.13
2023-02-02T22:15:49.071Z,102276.13
2023-02-02T22:20:52.436Z,102265.28
2023-02-02T22:25:58.509Z,102272.25
2023-02-02T22:31:01.028Z,102259.97
2023-02-02T22:36:03.032Z,102274.75
2023-02-02T22:41:06.869Z,102274.13
2023-02-02T22:46:09.582Z,102283.53
2023-02-02T22:51:11.083Z,102287.00
2023-02-02T22:56:19.670Z,102265.66
2023-02-02T23:01:21.188Z,102244.34
2023-02-02T23:06:22.964Z,102250.38
2023-02-02T23:11:25.615Z,102220.63
2023-02-02T23:16:27.274Z,102208.53
2023-02-02T23:21:29.125Z,102202.91
2023-02-02T23:26:30.521Z,102210.38
2023-02-02T23:31:32.142Z,102204.44
2023-02-02T23:36:33.909Z,102211.72
2023-02-02T23:41:35.291Z,102213.09
2023-02-02T23:46:37.732Z,102206.19
2023-02-02T23:51:39.140Z,102215.09
2023-02-02T23:56:42.276Z,102207.38
